Pagrindinis puslapis
METAR-TAF:

METAR-TAF

Oro uostai :

Rojetas, Tailandas

platuma: 16-07-00N, ilguma: 103-46-26E, Aukštis: 138 m

Dabartinis oras

Ataskaita buvo paskelbta 3 valandos ir 44 minutes, ne 14:00 UTC
Ramus vėjas
Temperatūra 26°C
Drėgmė 94%
Slėgis 1007 hPa
Matomumas: 8000 m
Su prošvaistėmis ne aukštis 3000 ft
lietus

METAR: VTUV 301400Z 00000KT 8000 -RA BKN030 26/25 Q1007 NOSIG

Laikas: 00:44 (17:44 UTC)

Prognozė

Ataskaita buvo paskelbta 44 minutes, ne 17:00 UTC
Prognozė galioja nuo 30 metu 18 UTC su 01 metu 18 UTC
Vėjas 5 kt iš Pietų
Matomumas 10 km arba daugiau
Išsisklaidę debesys ne aukštis 3000 ft
Laikinai
nuo 01 metu 07 UTC su 01 metu 11 UTC
Vėjas 15 kt iš Pietryčių
Matomumas: 4500 m
Mažai debesys ne aukštis 1800 ft, Liūtiniai kamuoliniai debesys.
Išsisklaidę debesys ne aukštis 2000 ft
Su prošvaistėmis ne aukštis 2500 ft
perkūnija, lietus

TAF: VTUV 301700Z 3018/0118 19005KT 9999 SCT030 TEMPO 0107/0111 13015KT 4500 TSRA FEW018CB SCT020 BKN025

Orai ataskaitas ir orų prognozės (METAR, TAF).

turimą stotys yra geltonos ir raudonos taškus žemėlapyje.

Perkelti pele per norėdami pamatyti stoties vardą.

Tada spustelėkite, norėdami matyti oro stebėjimo ir prognozės.

Norėdami pakeisti žemėlapį: spustelėkite ant žalios mygtukų su juodo kryžiaus žemyn,; žalią mygtuką su brūkšneliu, jei norite nutolinti; arba žalių rodyklių gretimoms žemėlapius.


METAR-TAF: